createdAt,value
2019-03-23T00:00:53.449Z,7.60
2019-03-23T00:03:24.439Z,7.50
2019-03-23T00:05:55.314Z,7.50
2019-03-23T00:08:26.237Z,7.50
2019-03-23T00:10:57.110Z,7.40
2019-03-23T00:13:28.114Z,7.40
2019-03-23T00:15:59.089Z,7.40
2019-03-23T00:18:30.002Z,7.30
2019-03-23T00:21:00.886Z,7.30
2019-03-23T00:23:31.814Z,7.20
2019-03-23T00:26:02.714Z,7.20
2019-03-23T00:28:33.641Z,7.20
2019-03-23T00:31:04.509Z,7.10
2019-03-23T00:33:35.502Z,7.20
2019-03-23T00:36:06.464Z,7.20
2019-03-23T00:38:37.366Z,7.10
2019-03-23T00:41:08.249Z,7.10
2019-03-23T00:43:39.170Z,7.10
2019-03-23T00:46:10.061Z,7.10
2019-03-23T00:48:40.981Z,7.10
2019-03-23T00:51:11.850Z,7.10
2019-03-23T00:53:42.841Z,7.00
2019-03-23T00:56:13.718Z,7.00
2019-03-23T00:58:45.058Z,7.00
2019-03-23T01:01:16.026Z,6.90
2019-03-23T01:03:47.051Z,6.90
2019-03-23T01:06:17.933Z,6.90
2019-03-23T01:08:48.841Z,6.90
2019-03-23T01:11:19.724Z,6.80
2019-03-23T01:13:50.789Z,6.80
2019-03-23T01:16:21.974Z,6.80
2019-03-23T01:18:52.883Z,6.70
2019-03-23T01:21:23.763Z,6.70
2019-03-23T01:23:54.659Z,6.70
2019-03-23T01:26:26.731Z,6.60
2019-03-23T01:28:57.878Z,6.60
2019-03-23T01:31:28.757Z,6.60
2019-03-23T01:34:00.058Z,6.50
2019-03-23T01:36:30.995Z,6.50
2019-03-23T01:39:01.897Z,6.40
2019-03-23T01:41:34.248Z,6.40
2019-03-23T01:44:05.993Z,6.40
2019-03-23T01:46:36.877Z,6.40
2019-03-23T01:49:07.876Z,6.30
2019-03-23T01:51:38.758Z,6.30
2019-03-23T01:54:09.756Z,6.30
2019-03-23T01:56:40.638Z,6.30
2019-03-23T01:59:11.571Z,6.20
2019-03-23T02:01:42.461Z,6.20
2019-03-23T02:04:13.459Z,6.20
2019-03-23T02:06:44.335Z,6.10
2019-03-23T02:09:15.669Z,6.10
2019-03-23T02:11:46.541Z,6.10
2019-03-23T02:14:17.458Z,6.10
2019-03-23T02:16:48.336Z,6.00
2019-03-23T02:19:19.264Z,6.00
2019-03-23T02:21:51.217Z,5.90
2019-03-23T02:24:22.133Z,5.90
2019-03-23T02:26:53.017Z,5.90
2019-03-23T02:29:24.018Z,5.90
2019-03-23T02:31:54.901Z,5.90
2019-03-23T02:34:25.830Z,5.90
2019-03-23T02:36:56.777Z,5.90
2019-03-23T02:39:27.785Z,5.80
2019-03-23T02:41:58.679Z,5.80
2019-03-23T02:44:29.688Z,5.70
2019-03-23T02:47:00.565Z,5.70
2019-03-23T02:49:31.506Z,5.70
2019-03-23T02:52:02.396Z,5.70
2019-03-23T02:54:33.456Z,5.70
2019-03-23T02:57:04.346Z,5.60
2019-03-23T02:59:35.274Z,5.60
2019-03-23T03:02:06.257Z,5.50
2019-03-23T03:04:37.196Z,5.60
2019-03-23T03:07:08.074Z,5.50
2019-03-23T03:09:39.007Z,5.50
2019-03-23T03:12:09.889Z,5.50
2019-03-23T03:14:40.905Z,5.40
2019-03-23T03:17:11.766Z,5.40
2019-03-23T03:19:42.681Z,5.40
2019-03-23T03:22:13.566Z,5.30
2019-03-23T03:24:44.490Z,5.40
2019-03-23T03:27:15.361Z,5.30
2019-03-23T03:29:46.378Z,5.30
2019-03-23T03:32:17.264Z,5.30
2019-03-23T03:34:48.182Z,5.30
2019-03-23T03:37:19.125Z,5.20
2019-03-23T03:39:50.362Z,5.20
2019-03-23T03:42:21.345Z,5.20
2019-03-23T03:44:52.259Z,5.20
2019-03-23T03:47:23.241Z,5.20
2019-03-23T03:49:54.150Z,5.20
2019-03-23T03:52:25.039Z,5.20
2019-03-23T03:54:55.948Z,5.10
2019-03-23T03:57:26.826Z,5.10
2019-03-23T03:59:57.761Z,5.10
2019-03-23T04:02:28.647Z,5.10
2019-03-23T04:04:59.588Z,5.10
2019-03-23T04:07:30.509Z,5.10
2019-03-23T04:10:01.422Z,5.10
2019-03-23T04:12:32.374Z,5.10
2019-03-23T04:15:03.382Z,5.10
2019-03-23T04:17:34.297Z,5.10
2019-03-23T04:20:05.720Z,5.00
2019-03-23T04:22:36.605Z,5.10
2019-03-23T04:25:08.690Z,5.00
2019-03-23T04:27:39.571Z,5.00
2019-03-23T04:30:10.882Z,5.00
2019-03-23T04:32:41.770Z,5.00
2019-03-23T04:35:13.061Z,5.10
2019-03-23T04:37:44.005Z,5.10
2019-03-23T04:40:15.226Z,5.10
2019-03-23T04:42:46.112Z,5.20
2019-03-23T04:45:17.401Z,5.20
2019-03-23T04:47:48.288Z,5.20
2019-03-23T04:50:19.294Z,5.20
2019-03-23T04:52:50.181Z,5.20
2019-03-23T04:55:21.117Z,5.30
2019-03-23T04:57:52.003Z,5.30
2019-03-23T05:00:23.017Z,5.40
2019-03-23T05:02:53.898Z,5.40
2019-03-23T05:05:24.837Z,5.40
2019-03-23T05:07:55.718Z,5.40
2019-03-23T05:10:26.659Z,5.40
2019-03-23T05:12:57.557Z,5.50
2019-03-23T05:15:28.500Z,5.50
2019-03-23T05:17:59.381Z,5.60
2019-03-23T05:20:31.631Z,5.60
2019-03-23T05:23:02.519Z,5.60
2019-03-23T05:25:33.472Z,5.70
2019-03-23T05:28:04.357Z,5.70
2019-03-23T05:30:35.297Z,5.80
2019-03-23T05:33:07.131Z,5.90
2019-03-23T05:35:38.173Z,5.90
2019-03-23T05:38:09.185Z,6.00
2019-03-23T05:40:40.553Z,6.00
2019-03-23T05:43:11.438Z,6.00
2019-03-23T05:45:42.368Z,6.10
2019-03-23T05:48:13.258Z,6.10
2019-03-23T05:50:44.275Z,6.20
2019-03-23T05:53:15.166Z,6.20
2019-03-23T05:55:46.086Z,6.30
2019-03-23T05:58:17.039Z,6.30
2019-03-23T06:00:47.954Z,6.40
2019-03-23T06:03:18.830Z,6.50
2019-03-23T06:05:49.762Z,6.50
2019-03-23T06:08:20.651Z,6.60
2019-03-23T06:10:51.567Z,6.60
2019-03-23T06:13:22.449Z,6.70
2019-03-23T06:15:54.437Z,6.70
2019-03-23T06:18:25.330Z,6.80
2019-03-23T06:20:56.253Z,6.90
2019-03-23T06:23:27.136Z,7.00
2019-03-23T06:25:58.270Z,7.10
2019-03-23T06:28:29.312Z,7.10
2019-03-23T06:31:00.253Z,7.20
2019-03-23T06:33:31.129Z,7.30
2019-03-23T06:36:02.041Z,7.40
2019-03-23T06:38:32.998Z,7.60
2019-03-23T06:41:03.905Z,7.80
2019-03-23T06:43:34.790Z,8.20
2019-03-23T06:46:05.714Z,8.60
2019-03-23T06:48:36.597Z,8.90
2019-03-23T06:51:07.589Z,9.40
2019-03-23T06:53:38.480Z,9.90
2019-03-23T06:56:09.400Z,10.50
2019-03-23T06:58:40.285Z,11.00
2019-03-23T07:01:11.197Z,11.30
2019-03-23T07:03:42.089Z,11.80
2019-03-23T07:06:12.998Z,12.00
2019-03-23T07:08:43.884Z,12.50
2019-03-23T07:11:14.789Z,12.90
2019-03-23T07:13:45.680Z,12.90
2019-03-23T07:16:16.592Z,12.90
2019-03-23T07:18:47.484Z,13.30
2019-03-23T07:21:18.818Z,13.60
2019-03-23T07:23:49.703Z,14.00
2019-03-23T07:26:20.638Z,13.90
2019-03-23T07:28:51.529Z,14.30
2019-03-23T07:31:22.457Z,14.50
2019-03-23T07:33:53.338Z,14.70
2019-03-23T07:36:24.266Z,14.50
2019-03-23T07:38:55.202Z,14.50
2019-03-23T07:41:26.354Z,14.30
2019-03-23T07:43:57.631Z,14.20
2019-03-23T07:46:28.630Z,14.30
2019-03-23T07:48:59.821Z,14.40
2019-03-23T07:51:30.745Z,14.40
2019-03-23T07:54:02.755Z,14.30
2019-03-23T07:56:34.160Z,14.40
2019-03-23T07:59:05.416Z,14.50
2019-03-23T08:01:36.416Z,14.60
2019-03-23T08:04:07.338Z,14.70
2019-03-23T08:06:38.605Z,14.70
2019-03-23T08:09:19.803Z,14.70
2019-03-23T08:11:42.053Z,15.00
2019-03-23T08:14:12.941Z,15.10
2019-03-23T08:16:44.248Z,15.20
2019-03-23T08:19:15.137Z,15.30
2019-03-23T08:21:46.062Z,15.40
2019-03-23T08:24:16.945Z,15.50
2019-03-23T08:26:47.893Z,15.60
2019-03-23T08:29:18.784Z,15.60
2019-03-23T08:31:49.707Z,16.00
2019-03-23T08:34:20.610Z,16.10
2019-03-23T08:36:51.509Z,16.40
2019-03-23T08:39:22.533Z,16.50
2019-03-23T08:41:53.547Z,16.80
2019-03-23T08:44:24.495Z,17.30
2019-03-23T08:46:55.507Z,17.60
2019-03-23T08:49:28.615Z,17.80
2019-03-23T08:51:59.172Z,18.00
2019-03-23T08:54:30.134Z,17.90
2019-03-23T08:57:01.129Z,18.20
2019-03-23T08:59:32.012Z,17.80
2019-03-23T09:02:02.949Z,18.00
2019-03-23T09:04:33.833Z,18.00
2019-03-23T09:07:04.754Z,17.90
2019-03-23T09:09:35.643Z,18.40
2019-03-23T09:12:06.562Z,18.60
2019-03-23T09:14:37.434Z,18.90
2019-03-23T09:17:08.341Z,18.90
2019-03-23T09:19:39.252Z,19.10
2019-03-23T09:22:11.259Z,19.30
2019-03-23T09:24:42.145Z,19.40
2019-03-23T09:27:13.357Z,19.30
2019-03-23T09:29:45.306Z,19.30
2019-03-23T09:32:16.902Z,19.20
2019-03-23T09:34:47.807Z,19.30
2019-03-23T09:37:19.037Z,19.50
2019-03-23T09:39:50.285Z,19.30
2019-03-23T09:42:21.204Z,19.40
2019-03-23T09:44:52.461Z,19.50
2019-03-23T09:47:23.376Z,19.40
2019-03-23T09:49:54.353Z,19.60
2019-03-23T09:52:25.375Z,19.90
2019-03-23T09:54:56.632Z,19.90
2019-03-23T09:57:28.119Z,19.90
2019-03-23T09:59:59.009Z,19.80
2019-03-23T10:02:30.377Z,20.10
2019-03-23T10:05:02.331Z,20.20
2019-03-23T10:07:33.726Z,20.50
2019-03-23T10:10:05.114Z,20.20
2019-03-23T10:12:36.130Z,20.40
2019-03-23T10:15:08.631Z,20.80
2019-03-23T10:17:40.378Z,20.70
2019-03-23T10:20:11.356Z,20.90
2019-03-23T10:22:42.434Z,20.90
2019-03-23T10:25:13.330Z,20.90
2019-03-23T10:27:44.369Z,20.90
2019-03-23T10:30:15.366Z,20.70
2019-03-23T10:32:46.672Z,20.60
2019-03-23T10:35:17.573Z,20.70
2019-03-23T10:37:48.597Z,20.70
2019-03-23T10:40:19.630Z,20.40
2019-03-23T10:42:50.542Z,20.40
2019-03-23T10:45:21.439Z,20.60
2019-03-23T10:47:53.185Z,20.70
2019-03-23T10:50:25.482Z,20.50
2019-03-23T10:52:58.214Z,20.50
2019-03-23T10:55:29.941Z,20.50
2019-03-23T10:58:00.916Z,20.40
2019-03-23T11:00:32.206Z,19.90
2019-03-23T11:03:03.758Z,20.10
2019-03-23T11:05:35.023Z,19.90
2019-03-23T11:08:06.134Z,20.00
2019-03-23T11:10:41.782Z,19.80
2019-03-23T11:13:10.308Z,19.70
2019-03-23T11:15:41.182Z,19.60
2019-03-23T11:18:13.798Z,19.40
2019-03-23T11:20:44.677Z,19.30
2019-03-23T11:23:15.586Z,19.10
2019-03-23T11:25:46.469Z,18.80
2019-03-23T11:28:17.389Z,18.70
2019-03-23T11:30:48.273Z,18.70
2019-03-23T11:33:19.290Z,18.30
2019-03-23T11:35:57.424Z,18.20
2019-03-23T11:38:22.862Z,18.00
2019-03-23T11:40:55.282Z,17.80
2019-03-23T11:43:26.489Z,17.70
2019-03-23T11:45:57.371Z,17.40
2019-03-23T11:48:28.647Z,17.20
2019-03-23T11:50:59.918Z,16.90
2019-03-23T11:53:30.924Z,17.00
2019-03-23T11:56:01.820Z,16.60
2019-03-23T11:58:32.821Z,16.70
2019-03-23T12:01:03.714Z,16.10
2019-03-23T12:03:34.926Z,15.80
2019-03-23T12:06:05.825Z,15.70
2019-03-23T12:08:36.833Z,15.70
2019-03-23T12:11:07.722Z,15.80
2019-03-23T12:13:38.634Z,15.80
2019-03-23T12:16:09.509Z,15.90
2019-03-23T12:18:40.534Z,15.60
2019-03-23T12:21:11.421Z,15.80
2019-03-23T12:23:42.361Z,15.50
2019-03-23T12:26:13.241Z,15.30
2019-03-23T12:28:44.187Z,15.30
2019-03-23T12:31:15.078Z,15.30
2019-03-23T12:33:46.014Z,15.20
2019-03-23T12:36:16.902Z,15.00
2019-03-23T12:38:47.829Z,15.00
2019-03-23T12:41:23.100Z,15.00
2019-03-23T12:43:51.501Z,15.10
2019-03-23T12:46:22.382Z,14.80
2019-03-23T12:48:53.308Z,14.80
2019-03-23T12:51:24.196Z,14.70
2019-03-23T12:53:55.115Z,14.70
2019-03-23T12:56:26.386Z,14.70
2019-03-23T12:58:58.365Z,14.50
2019-03-23T13:01:29.267Z,14.50
2019-03-23T13:04:00.189Z,14.30
2019-03-23T13:06:31.077Z,14.10
2019-03-23T13:09:02.013Z,14.20
2019-03-23T13:11:35.456Z,14.40
2019-03-23T13:14:06.614Z,14.40
2019-03-23T13:16:37.510Z,14.50
2019-03-23T13:19:08.554Z,14.30
2019-03-23T13:21:39.458Z,14.20
2019-03-23T13:24:10.397Z,14.00
2019-03-23T13:26:41.293Z,14.10
2019-03-23T13:29:12.521Z,14.20
2019-03-23T13:31:43.411Z,14.10
2019-03-23T13:34:14.333Z,14.20
2019-03-23T13:36:45.219Z,14.10
2019-03-23T13:39:16.218Z,14.00
2019-03-23T13:41:51.259Z,14.10
2019-03-23T13:44:22.180Z,14.10
2019-03-23T13:46:53.058Z,14.10
2019-03-23T13:49:23.987Z,14.10
2019-03-23T13:51:54.891Z,14.20
2019-03-23T13:54:25.961Z,14.30
2019-03-23T13:56:56.853Z,14.30
2019-03-23T13:59:27.777Z,14.50
2019-03-23T14:01:58.669Z,14.20
2019-03-23T14:04:29.586Z,14.30
2019-03-23T14:07:00.477Z,14.40
2019-03-23T14:09:31.408Z,14.40
2019-03-23T14:12:02.290Z,14.50
2019-03-23T14:14:33.585Z,14.50
2019-03-23T14:17:04.562Z,14.50
2019-03-23T14:19:35.501Z,14.60
2019-03-23T14:22:06.402Z,14.30
2019-03-23T14:24:37.392Z,14.30
2019-03-23T14:27:08.277Z,14.30
2019-03-23T14:29:39.433Z,14.40
2019-03-23T14:32:10.316Z,14.50
2019-03-23T14:34:41.317Z,14.50
2019-03-23T14:37:12.204Z,14.50
2019-03-23T14:39:43.126Z,14.40
2019-03-23T14:42:14.074Z,14.40
2019-03-23T14:44:45.073Z,14.60
2019-03-23T14:47:15.951Z,14.60
2019-03-23T14:49:46.953Z,14.70
2019-03-23T14:52:17.835Z,14.90
2019-03-23T14:54:49.090Z,14.80
2019-03-23T14:57:19.962Z,14.80
2019-03-23T14:59:50.964Z,14.80
2019-03-23T15:02:21.853Z,14.90
2019-03-23T15:04:52.869Z,14.90
2019-03-23T15:07:23.755Z,14.70
2019-03-23T15:09:54.757Z,14.80
2019-03-23T15:12:25.642Z,14.80
2019-03-23T15:14:56.816Z,14.70
2019-03-23T15:17:27.680Z,14.70
2019-03-23T15:19:58.628Z,14.60
2019-03-23T15:22:29.989Z,14.50
2019-03-23T15:25:00.906Z,14.40
2019-03-23T15:27:31.786Z,14.40
2019-03-23T15:30:02.826Z,14.40
2019-03-23T15:32:33.771Z,14.40
2019-03-23T15:35:04.779Z,14.40
2019-03-23T15:37:36.054Z,14.40
2019-03-23T15:40:07.481Z,14.40
2019-03-23T15:42:38.409Z,14.40
2019-03-23T15:45:09.646Z,14.40
2019-03-23T15:47:40.541Z,14.40
2019-03-23T15:50:12.387Z,14.40
2019-03-23T15:52:43.274Z,14.50
2019-03-23T15:55:14.313Z,14.40
2019-03-23T15:57:45.194Z,14.40
2019-03-23T16:00:16.830Z,14.30
2019-03-23T16:02:47.709Z,14.40
2019-03-23T16:05:18.748Z,14.40
2019-03-23T16:07:49.730Z,14.30
2019-03-23T16:10:20.653Z,14.30
2019-03-23T16:12:51.617Z,14.20
2019-03-23T16:15:22.549Z,14.10
2019-03-23T16:17:53.434Z,14.10
2019-03-23T16:20:24.464Z,14.10
2019-03-23T16:22:55.350Z,14.10
2019-03-23T16:25:26.282Z,14.10
2019-03-23T16:27:57.175Z,14.00
2019-03-23T16:30:32.835Z,14.00
2019-03-23T16:33:03.733Z,13.90
2019-03-23T16:35:35.734Z,14.00
2019-03-23T16:38:06.618Z,13.90
2019-03-23T16:40:37.627Z,13.90
2019-03-23T16:43:08.647Z,13.90
2019-03-23T16:45:39.598Z,13.90
2019-03-23T16:48:10.499Z,13.80
2019-03-23T16:50:41.509Z,13.80
2019-03-23T16:53:12.459Z,13.80
2019-03-23T16:55:43.472Z,13.80
2019-03-23T16:58:16.321Z,13.70
2019-03-23T17:00:46.895Z,13.70
2019-03-23T17:03:17.782Z,13.70
2019-03-23T17:05:48.808Z,13.70
2019-03-23T17:08:19.641Z,13.70
2019-03-23T17:10:50.558Z,13.60
2019-03-23T17:13:21.445Z,13.60
2019-03-23T17:15:52.445Z,13.50
2019-03-23T17:18:23.329Z,13.50
2019-03-23T17:20:54.391Z,13.50
2019-03-23T17:23:26.341Z,13.40
2019-03-23T17:25:57.318Z,13.50
2019-03-23T17:28:28.201Z,13.40
2019-03-23T17:30:59.335Z,13.40
2019-03-23T17:33:30.282Z,13.40
2019-03-23T17:36:01.205Z,13.40
2019-03-23T17:38:32.078Z,13.40
2019-03-23T17:41:03.105Z,13.40
2019-03-23T17:43:35.118Z,13.30
2019-03-23T17:46:06.045Z,13.30
2019-03-23T17:48:36.917Z,13.30
2019-03-23T17:51:07.942Z,13.30
2019-03-23T17:53:38.910Z,13.30
2019-03-23T17:56:09.836Z,13.30
2019-03-23T17:58:40.801Z,13.20
2019-03-23T18:01:19.270Z,13.20
2019-03-23T18:03:47.006Z,13.20
2019-03-23T18:06:18.001Z,13.10
2019-03-23T18:08:48.886Z,13.10
2019-03-23T18:11:19.982Z,13.00
2019-03-23T18:13:50.861Z,13.00
2019-03-23T18:16:22.234Z,13.00
2019-03-23T18:18:53.115Z,13.00
2019-03-23T18:21:24.053Z,12.90
2019-03-23T18:23:54.945Z,12.90
2019-03-23T18:26:25.866Z,12.90
2019-03-23T18:28:57.137Z,12.90
2019-03-23T18:31:28.080Z,12.80
2019-03-23T18:33:58.960Z,12.70
2019-03-23T18:36:29.874Z,12.70
2019-03-23T18:39:00.753Z,12.70
2019-03-23T18:41:31.962Z,12.60
2019-03-23T18:44:02.998Z,12.60
2019-03-23T18:46:34.369Z,12.60
2019-03-23T18:49:05.259Z,12.50
2019-03-23T18:51:36.281Z,12.50
2019-03-23T18:54:07.157Z,12.50
2019-03-23T18:56:38.496Z,12.50
2019-03-23T18:59:09.385Z,12.50
2019-03-23T19:01:40.285Z,12.50
2019-03-23T19:04:11.169Z,12.40
2019-03-23T19:06:42.170Z,12.40
2019-03-23T19:09:13.074Z,12.40
2019-03-23T19:11:44.090Z,12.40
2019-03-23T19:14:14.963Z,12.40
2019-03-23T19:16:45.885Z,12.30
2019-03-23T19:19:16.786Z,12.30
2019-03-23T19:21:47.836Z,12.20
2019-03-23T19:24:18.715Z,12.20
2019-03-23T19:26:49.634Z,12.20
2019-03-23T19:29:20.513Z,12.20
2019-03-23T19:31:51.518Z,12.20
2019-03-23T19:34:22.401Z,12.20
2019-03-23T19:36:53.338Z,12.20
2019-03-23T19:39:24.250Z,12.10
2019-03-23T19:41:55.858Z,12.10
2019-03-23T19:44:26.805Z,12.10
2019-03-23T19:46:57.813Z,12.10
2019-03-23T19:49:29.774Z,12.10
2019-03-23T19:52:00.707Z,12.00
2019-03-23T19:54:31.654Z,12.10
2019-03-23T19:57:02.622Z,12.10
2019-03-23T19:59:33.514Z,12.10
2019-03-23T20:02:04.599Z,12.00
2019-03-23T20:04:35.486Z,12.00
2019-03-23T20:07:06.397Z,12.00
2019-03-23T20:09:37.291Z,12.00
2019-03-23T20:12:09.850Z,11.90
2019-03-23T20:14:41.759Z,12.00
2019-03-23T20:17:12.865Z,12.00
2019-03-23T20:19:43.755Z,11.90
2019-03-23T20:22:14.661Z,11.90
2019-03-23T20:24:45.550Z,11.80
2019-03-23T20:27:16.599Z,11.80
2019-03-23T20:29:47.563Z,11.80
2019-03-23T20:32:18.491Z,11.70
2019-03-23T20:34:49.379Z,11.70
2019-03-23T20:37:20.638Z,11.70
2019-03-23T20:39:51.529Z,11.60
2019-03-23T20:42:22.466Z,11.60
2019-03-23T20:44:53.574Z,11.60
2019-03-23T20:47:24.577Z,11.50
2019-03-23T20:49:55.662Z,11.50
2019-03-23T20:52:26.601Z,11.40
2019-03-23T20:54:57.485Z,11.40
2019-03-23T20:57:36.902Z,11.30
2019-03-23T21:00:01.714Z,11.30
2019-03-23T21:02:33.878Z,11.20
2019-03-23T21:05:04.979Z,11.10
2019-03-23T21:07:35.994Z,11.10
2019-03-23T21:10:07.078Z,11.10
2019-03-23T21:12:38.300Z,11.00
2019-03-23T21:15:09.393Z,10.90
2019-03-23T21:17:50.690Z,10.90
2019-03-23T21:20:12.817Z,10.80
2019-03-23T21:22:43.821Z,10.80
2019-03-23T21:25:14.757Z,10.70
2019-03-23T21:27:45.677Z,10.70
2019-03-23T21:30:17.474Z,10.60
2019-03-23T21:32:48.395Z,10.60
2019-03-23T21:35:19.270Z,10.50
2019-03-23T21:37:50.206Z,10.40
2019-03-23T21:40:21.459Z,10.40
2019-03-23T21:42:52.381Z,10.30
2019-03-23T21:45:23.297Z,10.20
2019-03-23T21:47:54.310Z,10.20
2019-03-23T21:50:25.194Z,10.10
2019-03-23T21:52:56.198Z,10.00
2019-03-23T21:55:27.083Z,10.00
2019-03-23T21:57:57.993Z,9.90
2019-03-23T22:00:33.446Z,9.90
2019-03-23T22:03:04.790Z,9.80
2019-03-23T22:05:35.665Z,9.80
2019-03-23T22:08:06.591Z,9.80
2019-03-23T22:10:37.529Z,9.80
2019-03-23T22:13:09.141Z,9.70
2019-03-23T22:15:40.025Z,9.70
2019-03-23T22:18:11.050Z,9.60
2019-03-23T22:20:41.938Z,9.60
2019-03-23T22:23:13.786Z,9.60
2019-03-23T22:25:44.650Z,9.60
2019-03-23T22:28:15.573Z,9.60
2019-03-23T22:30:46.448Z,9.60
2019-03-23T22:33:17.701Z,9.60
2019-03-23T22:35:48.594Z,9.60
2019-03-23T22:38:19.530Z,9.50
2019-03-23T22:40:50.403Z,9.50
2019-03-23T22:43:21.649Z,9.50
2019-03-23T22:45:52.589Z,9.50
2019-03-23T22:48:23.825Z,9.50
2019-03-23T22:50:54.715Z,9.40
2019-03-23T22:53:25.622Z,9.50
2019-03-23T22:55:56.505Z,9.50
2019-03-23T22:58:27.846Z,9.40
2019-03-23T23:00:58.878Z,9.40
2019-03-23T23:03:29.789Z,9.30
2019-03-23T23:06:00.679Z,9.30
2019-03-23T23:08:31.613Z,9.30
2019-03-23T23:11:02.498Z,9.20
2019-03-23T23:13:33.413Z,9.20
2019-03-23T23:16:04.297Z,9.20
2019-03-23T23:18:35.210Z,9.10
2019-03-23T23:21:06.134Z,9.10
2019-03-23T23:23:37.017Z,9.10
2019-03-23T23:26:08.035Z,9.10
2019-03-23T23:28:39.025Z,9.10
2019-03-23T23:31:09.954Z,9.10
2019-03-23T23:33:42.152Z,9.00
2019-03-23T23:36:24.486Z,9.00
2019-03-23T23:38:55.395Z,8.90
